sensor_id;sensor_type;location;lat;lon;timestamp;temperature;humidity
26037;DHT22;13810;48.376;10.944;2023-01-09T00:00:05;4.20;99.90
26037;DHT22;13810;48.376;10.944;2023-01-09T00:00:36;4.20;99.90
26037;DHT22;13810;48.376;10.944;2023-01-09T00:01:34;4.20;99.90
26037;DHT22;13810;48.376;10.944;2023-01-09T00:02:05;4.20;99.90
26037;DHT22;13810;48.376;10.944;2023-01-09T00:02:36;4.20;99.90
26037;DHT22;13810;48.376;10.944;2023-01-09T00:03:10;4.20;99.90
26037;DHT22;13810;48.376;10.944;2023-01-09T00:03:40;4.20;99.90
26037;DHT22;13810;48.376;10.944;2023-01-09T00:04:11;4.20;99.90
26037;DHT22;13810;48.376;10.944;2023-01-09T00:04:42;4.20;99.90
26037;DHT22;13810;48.376;10.944;2023-01-09T00:05:14;4.20;99.90
26037;DHT22;13810;48.376;10.944;2023-01-09T00:05:46;4.30;99.90
26037;DHT22;13810;48.376;10.944;2023-01-09T00:06:16;4.30;99.90
26037;DHT22;13810;48.376;10.944;2023-01-09T00:06:47;4.30;99.90
26037;DHT22;13810;48.376;10.944;2023-01-09T00:07:23;4.30;99.90
26037;DHT22;13810;48.376;10.944;2023-01-09T00:07:53;4.30;99.90
26037;DHT22;13810;48.376;10.944;2023-01-09T00:08:24;4.30;99.90
26037;DHT22;13810;48.376;10.944;2023-01-09T00:08:55;4.30;99.90
26037;DHT22;13810;48.376;10.944;2023-01-09T00:09:26;4.30;99.90
26037;DHT22;13810;48.376;10.944;2023-01-09T00:09:56;4.30;99.90
26037;DHT22;13810;48.376;10.944;2023-01-09T00:10:27;4.30;99.90
26037;DHT22;13810;48.376;10.944;2023-01-09T00:10:58;4.30;99.90
26037;DHT22;13810;48.376;10.944;2023-01-09T00:11:28;4.30;99.90
26037;DHT22;13810;48.376;10.944;2023-01-09T00:11:59;4.30;99.90
26037;DHT22;13810;48.376;10.944;2023-01-09T00:12:30;4.30;99.90
26037;DHT22;13810;48.376;10.944;2023-01-09T00:13:01;4.30;99.90
26037;DHT22;13810;48.376;10.944;2023-01-09T00:13:31;4.30;99.90
26037;DHT22;13810;48.376;10.944;2023-01-09T00:14:03;4.30;99.90
26037;DHT22;13810;48.376;10.944;2023-01-09T00:14:34;4.30;99.90
26037;DHT22;13810;48.376;10.944;2023-01-09T00:15:05;4.30;99.90
26037;DHT22;13810;48.376;10.944;2023-01-09T00:15:36;4.30;99.90
26037;DHT22;13810;48.376;10.944;2023-01-09T00:16:07;4.30;99.90
26037;DHT22;13810;48.376;10.944;2023-01-09T00:16:38;4.30;99.90
26037;DHT22;13810;48.376;10.944;2023-01-09T00:17:09;4.30;99.90
26037;DHT22;13810;48.376;10.944;2023-01-09T00:17:40;4.20;99.90
26037;DHT22;13810;48.376;10.944;2023-01-09T00:18:10;4.20;99.90
26037;DHT22;13810;48.376;10.944;2023-01-09T00:18:41;4.20;99.90
26037;DHT22;13810;48.376;10.944;2023-01-09T00:19:12;4.20;99.90
26037;DHT22;13810;48.376;10.944;2023-01-09T00:19:42;4.20;99.90
26037;DHT22;13810;48.376;10.944;2023-01-09T00:20:13;4.20;99.90
26037;DHT22;13810;48.376;10.944;2023-01-09T00:20:44;4.20;99.90
26037;DHT22;13810;48.376;10.944;2023-01-09T00:21:14;4.20;99.90
26037;DHT22;13810;48.376;10.944;2023-01-09T00:21:45;4.20;99.90
26037;DHT22;13810;48.376;10.944;2023-01-09T00:22:16;4.20;99.90
26037;DHT22;13810;48.376;10.944;2023-01-09T00:22:46;4.20;99.90
26037;DHT22;13810;48.376;10.944;2023-01-09T00:23:17;4.20;99.90
26037;DHT22;13810;48.376;10.944;2023-01-09T00:23:48;4.20;99.90
26037;DHT22;13810;48.376;10.944;2023-01-09T00:24:18;4.20;99.90
26037;DHT22;13810;48.376;10.944;2023-01-09T00:24:49;4.20;99.90
26037;DHT22;13810;48.376;10.944;2023-01-09T00:25:20;4.20;99.90
26037;DHT22;13810;48.376;10.944;2023-01-09T00:26:33;4.20;99.90
26037;DHT22;13810;48.376;10.944;2023-01-09T00:26:57;4.20;99.90
26037;DHT22;13810;48.376;10.944;2023-01-09T00:27:32;4.20;99.90
26037;DHT22;13810;48.376;10.944;2023-01-09T00:28:03;4.20;99.90
26037;DHT22;13810;48.376;10.944;2023-01-09T00:28:34;4.20;99.90
26037;DHT22;13810;48.376;10.944;2023-01-09T00:29:05;4.20;99.90
26037;DHT22;13810;48.376;10.944;2023-01-09T00:29:36;4.20;99.90
26037;DHT22;13810;48.376;10.944;2023-01-09T00:30:07;4.20;99.90
26037;DHT22;13810;48.376;10.944;2023-01-09T00:30:38;4.10;99.90
26037;DHT22;13810;48.376;10.944;2023-01-09T00:31:09;4.20;99.90
26037;DHT22;13810;48.376;10.944;2023-01-09T00:31:40;4.20;99.90
26037;DHT22;13810;48.376;10.944;2023-01-09T00:32:10;4.20;99.90
26037;DHT22;13810;48.376;10.944;2023-01-09T00:32:41;4.20;99.90
26037;DHT22;13810;48.376;10.944;2023-01-09T00:33:12;4.20;99.90
26037;DHT22;13810;48.376;10.944;2023-01-09T00:34:04;4.10;99.90
26037;DHT22;13810;48.376;10.944;2023-01-09T00:34:36;4.10;99.90
26037;DHT22;13810;48.376;10.944;2023-01-09T00:35:10;4.20;99.90
26037;DHT22;13810;48.376;10.944;2023-01-09T00:35:43;4.20;99.90
26037;DHT22;13810;48.376;10.944;2023-01-09T00:36:13;4.20;99.90
26037;DHT22;13810;48.376;10.944;2023-01-09T00:36:44;4.20;99.90
26037;DHT22;13810;48.376;10.944;2023-01-09T00:37:15;4.20;99.90
26037;DHT22;13810;48.376;10.944;2023-01-09T00:37:45;4.10;99.90
26037;DHT22;13810;48.376;10.944;2023-01-09T00:38:16;4.10;99.90
26037;DHT22;13810;48.376;10.944;2023-01-09T00:38:47;4.10;99.90
26037;DHT22;13810;48.376;10.944;2023-01-09T00:39:17;4.10;99.90
26037;DHT22;13810;48.376;10.944;2023-01-09T00:39:48;4.10;99.90
26037;DHT22;13810;48.376;10.944;2023-01-09T00:40:19;4.10;99.90
26037;DHT22;13810;48.376;10.944;2023-01-09T00:40:50;4.10;99.90
26037;DHT22;13810;48.376;10.944;2023-01-09T00:41:30;4.10;99.90
26037;DHT22;13810;48.376;10.944;2023-01-09T00:42:01;4.10;99.90
26037;DHT22;13810;48.376;10.944;2023-01-09T00:42:33;4.10;99.90
26037;DHT22;13810;48.376;10.944;2023-01-09T00:43:05;4.10;99.90
26037;DHT22;13810;48.376;10.944;2023-01-09T00:43:43;4.10;99.90
26037;DHT22;13810;48.376;10.944;2023-01-09T00:44:23;4.20;99.90
26037;DHT22;13810;48.376;10.944;2023-01-09T00:44:58;4.20;99.90
26037;DHT22;13810;48.376;10.944;2023-01-09T00:45:30;4.20;99.90
26037;DHT22;13810;48.376;10.944;2023-01-09T00:46:03;4.10;99.90
26037;DHT22;13810;48.376;10.944;2023-01-09T00:46:38;4.20;99.90
26037;DHT22;13810;48.376;10.944;2023-01-09T00:47:13;4.20;99.90
26037;DHT22;13810;48.376;10.944;2023-01-09T00:47:48;4.20;99.90
26037;DHT22;13810;48.376;10.944;2023-01-09T00:48:20;4.10;99.90
26037;DHT22;13810;48.376;10.944;2023-01-09T00:48:56;4.20;99.90
26037;DHT22;13810;48.376;10.944;2023-01-09T00:49:29;4.20;99.90
26037;DHT22;13810;48.376;10.944;2023-01-09T00:50:07;4.20;99.90
26037;DHT22;13810;48.376;10.944;2023-01-09T00:50:39;4.20;99.90
26037;DHT22;13810;48.376;10.944;2023-01-09T00:51:10;4.20;99.90
26037;DHT22;13810;48.376;10.944;2023-01-09T00:51:41;4.20;99.90
26037;DHT22;13810;48.376;10.944;2023-01-09T00:52:12;4.20;99.90
26037;DHT22;13810;48.376;10.944;2023-01-09T00:52:44;4.20;99.90
26037;DHT22;13810;48.376;10.944;2023-01-09T00:53:18;4.20;99.90
26037;DHT22;13810;48.376;10.944;2023-01-09T00:53:50;4.20;99.90
26037;DHT22;13810;48.376;10.944;2023-01-09T00:54:21;4.20;99.90
26037;DHT22;13810;48.376;10.944;2023-01-09T00:54:52;4.20;99.90
26037;DHT22;13810;48.376;10.944;2023-01-09T00:55:23;4.20;99.90
26037;DHT22;13810;48.376;10.944;2023-01-09T00:55:57;4.20;99.90
26037;DHT22;13810;48.376;10.944;2023-01-09T00:56:28;4.20;99.90
26037;DHT22;13810;48.376;10.944;2023-01-09T00:56:59;4.20;99.90
26037;DHT22;13810;48.376;10.944;2023-01-09T00:57:30;4.20;99.90
26037;DHT22;13810;48.376;10.944;2023-01-09T00:58:01;4.20;99.90
26037;DHT22;13810;48.376;10.944;2023-01-09T00:58:33;4.20;99.90
26037;DHT22;13810;48.376;10.944;2023-01-09T00:59:05;4.20;99.90
26037;DHT22;13810;48.376;10.944;2023-01-09T00:59:36;4.20;99.90
26037;DHT22;13810;48.376;10.944;2023-01-09T01:00:08;4.20;99.90
26037;DHT22;13810;48.376;10.944;2023-01-09T01:00:39;4.20;99.90
26037;DHT22;13810;48.376;10.944;2023-01-09T01:01:09;4.20;99.90
26037;DHT22;13810;48.376;10.944;2023-01-09T01:01:41;4.20;99.90
26037;DHT22;13810;48.376;10.944;2023-01-09T01:02:12;4.20;99.90
26037;DHT22;13810;48.376;10.944;2023-01-09T01:02:42;4.20;99.90
26037;DHT22;13810;48.376;10.944;2023-01-09T01:03:13;4.20;99.90
26037;DHT22;13810;48.376;10.944;2023-01-09T01:03:43;4.20;99.90
26037;DHT22;13810;48.376;10.944;2023-01-09T01:04:14;4.20;99.90
26037;DHT22;13810;48.376;10.944;2023-01-09T01:05:04;4.20;99.90
26037;DHT22;13810;48.376;10.944;2023-01-09T01:05:54;4.20;99.90
26037;DHT22;13810;48.376;10.944;2023-01-09T01:06:43;4.20;99.90
26037;DHT22;13810;48.376;10.944;2023-01-09T01:07:32;4.20;99.90
26037;DHT22;13810;48.376;10.944;2023-01-09T01:08:12;4.20;99.90
26037;DHT22;13810;48.376;10.944;2023-01-09T01:08:44;4.20;99.90
26037;DHT22;13810;48.376;10.944;2023-01-09T01:09:15;4.20;99.90
26037;DHT22;13810;48.376;10.944;2023-01-09T01:09:45;4.20;99.90
26037;DHT22;13810;48.376;10.944;2023-01-09T01:10:19;4.20;99.90
26037;DHT22;13810;48.376;10.944;2023-01-09T01:10:49;4.20;99.90
26037;DHT22;13810;48.376;10.944;2023-01-09T01:11:21;4.20;99.90
26037;DHT22;13810;48.376;10.944;2023-01-09T01:11:51;4.20;99.90
26037;DHT22;13810;48.376;10.944;2023-01-09T01:12:22;4.20;99.90
26037;DHT22;13810;48.376;10.944;2023-01-09T01:12:53;4.20;99.90
26037;DHT22;13810;48.376;10.944;2023-01-09T01:13:23;4.20;99.90
26037;DHT22;13810;48.376;10.944;2023-01-09T01:13:55;4.20;99.90
26037;DHT22;13810;48.376;10.944;2023-01-09T01:14:26;4.20;99.90
26037;DHT22;13810;48.376;10.944;2023-01-09T01:14:57;4.20;99.90
26037;DHT22;13810;48.376;10.944;2023-01-09T01:15:28;4.20;99.90
26037;DHT22;13810;48.376;10.944;2023-01-09T01:15:58;4.20;99.90
26037;DHT22;13810;48.376;10.944;2023-01-09T01:16:29;4.20;99.90
26037;DHT22;13810;48.376;10.944;2023-01-09T01:17:00;4.20;99.90
26037;DHT22;13810;48.376;10.944;2023-01-09T01:17:33;4.20;99.90
26037;DHT22;13810;48.376;10.944;2023-01-09T01:18:04;4.20;99.90
26037;DHT22;13810;48.376;10.944;2023-01-09T01:18:35;4.30;99.90
26037;DHT22;13810;48.376;10.944;2023-01-09T01:19:05;4.30;99.90
26037;DHT22;13810;48.376;10.944;2023-01-09T01:19:36;4.20;99.90
26037;DHT22;13810;48.376;10.944;2023-01-09T01:20:10;4.20;99.90
26037;DHT22;13810;48.376;10.944;2023-01-09T01:20:43;4.20;99.90
26037;DHT22;13810;48.376;10.944;2023-01-09T01:21:13;4.20;99.90
26037;DHT22;13810;48.376;10.944;2023-01-09T01:21:44;4.20;99.90
26037;DHT22;13810;48.376;10.944;2023-01-09T01:22:15;4.20;99.90
26037;DHT22;13810;48.376;10.944;2023-01-09T01:22:45;4.20;99.90
26037;DHT22;13810;48.376;10.944;2023-01-09T01:23:16;4.20;99.90
26037;DHT22;13810;48.376;10.944;2023-01-09T01:23:47;4.20;99.90
26037;DHT22;13810;48.376;10.944;2023-01-09T01:24:17;4.20;99.90
26037;DHT22;13810;48.376;10.944;2023-01-09T01:24:49;4.20;99.90
26037;DHT22;13810;48.376;10.944;2023-01-09T01:25:19;4.20;99.90
26037;DHT22;13810;48.376;10.944;2023-01-09T01:25:50;4.20;99.90
26037;DHT22;13810;48.376;10.944;2023-01-09T01:26:21;4.20;99.90
26037;DHT22;13810;48.376;10.944;2023-01-09T01:26:51;4.20;99.90
26037;DHT22;13810;48.376;10.944;2023-01-09T01:27:22;4.20;99.90
26037;DHT22;13810;48.376;10.944;2023-01-09T01:27:53;4.30;99.90
26037;DHT22;13810;48.376;10.944;2023-01-09T01:28:23;4.30;99.90
26037;DHT22;13810;48.376;10.944;2023-01-09T01:28:54;4.30;99.90
26037;DHT22;13810;48.376;10.944;2023-01-09T01:29:25;4.30;99.90
26037;DHT22;13810;48.376;10.944;2023-01-09T01:29:55;4.30;99.90
26037;DHT22;13810;48.376;10.944;2023-01-09T01:30:26;4.30;99.90
26037;DHT22;13810;48.376;10.944;2023-01-09T01:30:57;4.30;99.90
26037;DHT22;13810;48.376;10.944;2023-01-09T01:31:27;4.30;99.90
26037;DHT22;13810;48.376;10.944;2023-01-09T01:31:58;4.30;99.90
26037;DHT22;13810;48.376;10.944;2023-01-09T01:32:29;4.30;99.90
26037;DHT22;13810;48.376;10.944;2023-01-09T01:32:59;4.30;99.90
26037;DHT22;13810;48.376;10.944;2023-01-09T01:33:31;4.30;99.90
26037;DHT22;13810;48.376;10.944;2023-01-09T01:34:02;4.30;99.90
26037;DHT22;13810;48.376;10.944;2023-01-09T01:34:33;4.30;99.90
26037;DHT22;13810;48.376;10.944;2023-01-09T01:35:04;4.30;99.90
26037;DHT22;13810;48.376;10.944;2023-01-09T01:35:35;4.30;99.90
26037;DHT22;13810;48.376;10.944;2023-01-09T01:36:08;4.30;99.90
26037;DHT22;13810;48.376;10.944;2023-01-09T01:36:38;4.30;99.90
26037;DHT22;13810;48.376;10.944;2023-01-09T01:37:09;4.30;99.90
26037;DHT22;13810;48.376;10.944;2023-01-09T01:37:40;4.30;99.90
26037;DHT22;13810;48.376;10.944;2023-01-09T01:38:10;4.30;99.90
26037;DHT22;13810;48.376;10.944;2023-01-09T01:38:41;4.30;99.90
26037;DHT22;13810;48.376;10.944;2023-01-09T01:39:11;4.30;99.90
26037;DHT22;13810;48.376;10.944;2023-01-09T01:39:42;4.30;99.90
26037;DHT22;13810;48.376;10.944;2023-01-09T01:40:13;4.30;99.90
26037;DHT22;13810;48.376;10.944;2023-01-09T01:40:43;4.30;99.90
26037;DHT22;13810;48.376;10.944;2023-01-09T01:41:14;4.30;99.90
26037;DHT22;13810;48.376;10.944;2023-01-09T01:41:58;4.30;99.90
26037;DHT22;13810;48.376;10.944;2023-01-09T01:42:29;4.30;99.90
26037;DHT22;13810;48.376;10.944;2023-01-09T01:43:00;4.30;99.90
26037;DHT22;13810;48.376;10.944;2023-01-09T01:43:49;4.30;99.90
26037;DHT22;13810;48.376;10.944;2023-01-09T01:45:28;4.30;99.90
26037;DHT22;13810;48.376;10.944;2023-01-09T01:45:59;4.30;99.90
26037;DHT22;13810;48.376;10.944;2023-01-09T01:46:31;4.30;99.90
26037;DHT22;13810;48.376;10.944;2023-01-09T01:47:02;4.30;99.90
26037;DHT22;13810;48.376;10.944;2023-01-09T01:48:19;4.30;99.90
26037;DHT22;13810;48.376;10.944;2023-01-09T01:48:29;4.30;99.90
26037;DHT22;13810;48.376;10.944;2023-01-09T01:49:13;4.30;99.90
26037;DHT22;13810;48.376;10.944;2023-01-09T01:49:46;4.30;99.90
26037;DHT22;13810;48.376;10.944;2023-01-09T01:50:28;4.30;99.90
26037;DHT22;13810;48.376;10.944;2023-01-09T01:51:02;4.30;99.90
26037;DHT22;13810;48.376;10.944;2023-01-09T01:51:38;4.30;99.90
26037;DHT22;13810;48.376;10.944;2023-01-09T01:52:09;4.20;99.90
26037;DHT22;13810;48.376;10.944;2023-01-09T01:52:44;4.20;99.90
26037;DHT22;13810;48.376;10.944;2023-01-09T01:53:57;4.20;99.90
26037;DHT22;13810;48.376;10.944;2023-01-09T01:54:28;4.20;99.90
26037;DHT22;13810;48.376;10.944;2023-01-09T01:55:03;4.20;99.90
26037;DHT22;13810;48.376;10.944;2023-01-09T01:55:38;4.20;99.90
26037;DHT22;13810;48.376;10.944;2023-01-09T01:56:11;4.20;99.90
26037;DHT22;13810;48.376;10.944;2023-01-09T01:56:46;4.20;99.90
26037;DHT22;13810;48.376;10.944;2023-01-09T01:57:18;4.20;99.90
26037;DHT22;13810;48.376;10.944;2023-01-09T01:57:51;4.20;99.90
26037;DHT22;13810;48.376;10.944;2023-01-09T01:58:25;4.20;99.90
26037;DHT22;13810;48.376;10.944;2023-01-09T01:59:26;4.20;99.90
26037;DHT22;13810;48.376;10.944;2023-01-09T01:59:58;4.20;99.90
26037;DHT22;13810;48.376;10.944;2023-01-09T02:00:36;4.20;99.90
26037;DHT22;13810;48.376;10.944;2023-01-09T02:01:07;4.20;99.90
26037;DHT22;13810;48.376;10.944;2023-01-09T02:01:42;4.20;99.90
26037;DHT22;13810;48.376;10.944;2023-01-09T02:02:13;4.20;99.90
26037;DHT22;13810;48.376;10.944;2023-01-09T02:02:45;4.20;99.90
26037;DHT22;13810;48.376;10.944;2023-01-09T02:03:19;4.20;99.90
26037;DHT22;13810;48.376;10.944;2023-01-09T02:03:54;4.20;99.90
26037;DHT22;13810;48.376;10.944;2023-01-09T02:04:27;4.20;99.90
26037;DHT22;13810;48.376;10.944;2023-01-09T02:05:00;4.20;99.90
26037;DHT22;13810;48.376;10.944;2023-01-09T02:05:32;4.20;99.90
26037;DHT22;13810;48.376;10.944;2023-01-09T02:06:03;4.20;99.90
26037;DHT22;13810;48.376;10.944;2023-01-09T02:06:34;4.20;99.90
26037;DHT22;13810;48.376;10.944;2023-01-09T02:07:08;4.20;99.90
26037;DHT22;13810;48.376;10.944;2023-01-09T02:07:39;4.20;99.90
26037;DHT22;13810;48.376;10.944;2023-01-09T02:08:10;4.20;99.90
26037;DHT22;13810;48.376;10.944;2023-01-09T02:08:41;4.20;99.90
26037;DHT22;13810;48.376;10.944;2023-01-09T02:09:14;4.20;99.90
26037;DHT22;13810;48.376;10.944;2023-01-09T02:09:47;4.20;99.90
26037;DHT22;13810;48.376;10.944;2023-01-09T02:10:18;4.20;99.90
26037;DHT22;13810;48.376;10.944;2023-01-09T02:10:52;4.20;99.90
26037;DHT22;13810;48.376;10.944;2023-01-09T02:11:24;4.20;99.90
26037;DHT22;13810;48.376;10.944;2023-01-09T02:11:56;4.20;99.90
26037;DHT22;13810;48.376;10.944;2023-01-09T02:12:27;4.20;99.90
26037;DHT22;13810;48.376;10.944;2023-01-09T02:12:58;4.20;99.90
26037;DHT22;13810;48.376;10.944;2023-01-09T02:13:32;4.20;99.90
26037;DHT22;13810;48.376;10.944;2023-01-09T02:14:03;4.20;99.90
26037;DHT22;13810;48.376;10.944;2023-01-09T02:14:33;4.20;99.90
26037;DHT22;13810;48.376;10.944;2023-01-09T02:15:10;4.20;99.90
26037;DHT22;13810;48.376;10.944;2023-01-09T02:16:04;4.30;99.90
26037;DHT22;13810;48.376;10.944;2023-01-09T02:17:44;4.20;99.90
26037;DHT22;13810;48.376;10.944;2023-01-09T02:18:45;4.20;99.90
26037;DHT22;13810;48.376;10.944;2023-01-09T02:19:26;4.20;99.90
26037;DHT22;13810;48.376;10.944;2023-01-09T02:20:48;4.20;99.90
26037;DHT22;13810;48.376;10.944;2023-01-09T02:21:41;4.20;99.90
26037;DHT22;13810;48.376;10.944;2023-01-09T02:25:07;4.10;99.90
26037;DHT22;13810;48.376;10.944;2023-01-09T02:29:21;4.00;99.90
26037;DHT22;13810;48.376;10.944;2023-01-09T02:31:01;4.00;99.90
26037;DHT22;13810;48.376;10.944;2023-01-09T02:31:39;4.00;99.90
26037;DHT22;13810;48.376;10.944;2023-01-09T02:32:32;4.00;99.90
26037;DHT22;13810;48.376;10.944;2023-01-09T02:33:28;4.00;99.90
26037;DHT22;13810;48.376;10.944;2023-01-09T02:34:23;4.00;99.90
26037;DHT22;13810;48.376;10.944;2023-01-09T02:35:44;4.00;99.90
26037;DHT22;13810;48.376;10.944;2023-01-09T02:37:12;3.90;99.90
26037;DHT22;13810;48.376;10.944;2023-01-09T02:38:13;3.90;99.90
26037;DHT22;13810;48.376;10.944;2023-01-09T02:39:13;3.90;99.90
26037;DHT22;13810;48.376;10.944;2023-01-09T02:41:01;3.90;99.90
26037;DHT22;13810;48.376;10.944;2023-01-09T02:42:16;3.90;99.90
26037;DHT22;13810;48.376;10.944;2023-01-09T02:42:49;3.90;99.90
26037;DHT22;13810;48.376;10.944;2023-01-09T02:43:20;3.90;99.90
26037;DHT22;13810;48.376;10.944;2023-01-09T02:44:25;3.90;99.90
26037;DHT22;13810;48.376;10.944;2023-01-09T02:44:56;3.90;99.90
26037;DHT22;13810;48.376;10.944;2023-01-09T02:45:27;3.90;99.90
26037;DHT22;13810;48.376;10.944;2023-01-09T02:45:58;4.00;99.90
26037;DHT22;13810;48.376;10.944;2023-01-09T02:46:28;3.90;99.90
26037;DHT22;13810;48.376;10.944;2023-01-09T02:47:37;3.90;99.90
26037;DHT22;13810;48.376;10.944;2023-01-09T02:48:11;3.90;99.90
26037;DHT22;13810;48.376;10.944;2023-01-09T02:48:43;4.00;99.90
26037;DHT22;13810;48.376;10.944;2023-01-09T02:49:15;3.90;99.90
26037;DHT22;13810;48.376;10.944;2023-01-09T02:49:52;3.90;99.90
26037;DHT22;13810;48.376;10.944;2023-01-09T02:50:30;3.90;99.90
26037;DHT22;13810;48.376;10.944;2023-01-09T02:51:30;3.90;99.90
26037;DHT22;13810;48.376;10.944;2023-01-09T02:54:12;4.00;99.90
26037;DHT22;13810;48.376;10.944;2023-01-09T02:59:17;4.00;99.90
26037;DHT22;13810;48.376;10.944;2023-01-09T03:02:36;4.00;99.90
26037;DHT22;13810;48.376;10.944;2023-01-09T03:03:26;4.10;99.90
26037;DHT22;13810;48.376;10.944;2023-01-09T03:05:42;4.10;99.90
26037;DHT22;13810;48.376;10.944;2023-01-09T03:06:35;4.10;99.90
26037;DHT22;13810;48.376;10.944;2023-01-09T03:07:31;4.10;99.90
26037;DHT22;13810;48.376;10.944;2023-01-09T03:08:10;4.10;99.90
26037;DHT22;13810;48.376;10.944;2023-01-09T03:08:46;4.10;99.90
26037;DHT22;13810;48.376;10.944;2023-01-09T03:09:21;4.10;99.90
26037;DHT22;13810;48.376;10.944;2023-01-09T03:09:57;4.10;99.90
26037;DHT22;13810;48.376;10.944;2023-01-09T03:10:41;4.10;99.90
26037;DHT22;13810;48.376;10.944;2023-01-09T03:11:14;4.20;99.90
26037;DHT22;13810;48.376;10.944;2023-01-09T03:11:51;4.10;99.90
26037;DHT22;13810;48.376;10.944;2023-01-09T03:12:25;4.20;99.90
26037;DHT22;13810;48.376;10.944;2023-01-09T03:13:00;4.20;99.90
26037;DHT22;13810;48.376;10.944;2023-01-09T03:13:40;4.20;99.90
26037;DHT22;13810;48.376;10.944;2023-01-09T03:14:15;4.20;99.90
26037;DHT22;13810;48.376;10.944;2023-01-09T03:14:48;4.20;99.90
26037;DHT22;13810;48.376;10.944;2023-01-09T03:15:24;4.20;99.90
26037;DHT22;13810;48.376;10.944;2023-01-09T03:15:57;4.20;99.90
26037;DHT22;13810;48.376;10.944;2023-01-09T03:16:31;4.20;99.90
26037;DHT22;13810;48.376;10.944;2023-01-09T03:17:05;4.20;99.90
26037;DHT22;13810;48.376;10.944;2023-01-09T03:17:41;4.20;99.90
26037;DHT22;13810;48.376;10.944;2023-01-09T03:18:15;4.20;99.90
26037;DHT22;13810;48.376;10.944;2023-01-09T03:18:48;4.30;99.90
26037;DHT22;13810;48.376;10.944;2023-01-09T03:19:22;4.30;99.90
26037;DHT22;13810;48.376;10.944;2023-01-09T03:19:55;4.30;99.90
26037;DHT22;13810;48.376;10.944;2023-01-09T03:20:26;4.30;99.90
26037;DHT22;13810;48.376;10.944;2023-01-09T03:20:58;4.30;99.90
26037;DHT22;13810;48.376;10.944;2023-01-09T03:21:30;4.30;99.90
26037;DHT22;13810;48.376;10.944;2023-01-09T03:22:02;4.20;99.90
26037;DHT22;13810;48.376;10.944;2023-01-09T03:22:32;4.30;99.90
26037;DHT22;13810;48.376;10.944;2023-01-09T03:23:06;4.30;99.90
26037;DHT22;13810;48.376;10.944;2023-01-09T03:23:54;4.30;99.90
26037;DHT22;13810;48.376;10.944;2023-01-09T03:24:25;4.30;99.90
26037;DHT22;13810;48.376;10.944;2023-01-09T03:24:56;4.30;99.90
26037;DHT22;13810;48.376;10.944;2023-01-09T03:25:28;4.30;99.90
26037;DHT22;13810;48.376;10.944;2023-01-09T03:25:59;4.40;99.90
26037;DHT22;13810;48.376;10.944;2023-01-09T03:26:30;4.40;99.90
26037;DHT22;13810;48.376;10.944;2023-01-09T03:27:01;4.30;99.90
26037;DHT22;13810;48.376;10.944;2023-01-09T03:27:32;4.30;99.90
26037;DHT22;13810;48.376;10.944;2023-01-09T03:28:06;4.30;99.90
26037;DHT22;13810;48.376;10.944;2023-01-09T03:28:37;4.40;99.90
26037;DHT22;13810;48.376;10.944;2023-01-09T03:29:08;4.40;99.90
26037;DHT22;13810;48.376;10.944;2023-01-09T03:29:39;4.40;99.90
26037;DHT22;13810;48.376;10.944;2023-01-09T03:30:10;4.40;99.90
26037;DHT22;13810;48.376;10.944;2023-01-09T03:30:40;4.40;99.90
26037;DHT22;13810;48.376;10.944;2023-01-09T03:31:11;4.40;99.90
26037;DHT22;13810;48.376;10.944;2023-01-09T03:31:42;4.40;99.90
26037;DHT22;13810;48.376;10.944;2023-01-09T03:32:13;4.40;99.90
26037;DHT22;13810;48.376;10.944;2023-01-09T03:32:44;4.40;99.90
26037;DHT22;13810;48.376;10.944;2023-01-09T03:33:14;4.40;99.90
26037;DHT22;13810;48.376;10.944;2023-01-09T03:33:45;4.40;99.90
26037;DHT22;13810;48.376;10.944;2023-01-09T03:34:15;4.40;99.90
26037;DHT22;13810;48.376;10.944;2023-01-09T03:34:46;4.40;99.90
26037;DHT22;13810;48.376;10.944;2023-01-09T03:35:17;4.50;99.90
26037;DHT22;13810;48.376;10.944;2023-01-09T03:35:47;4.50;99.90
26037;DHT22;13810;48.376;10.944;2023-01-09T03:36:21;4.50;99.90
26037;DHT22;13810;48.376;10.944;2023-01-09T03:36:52;4.50;99.90
26037;DHT22;13810;48.376;10.944;2023-01-09T03:37:23;4.50;99.90
26037;DHT22;13810;48.376;10.944;2023-01-09T03:37:54;4.50;99.90
26037;DHT22;13810;48.376;10.944;2023-01-09T03:38:24;4.50;99.90
26037;DHT22;13810;48.376;10.944;2023-01-09T03:38:55;4.50;99.90
26037;DHT22;13810;48.376;10.944;2023-01-09T03:39:26;4.50;99.90
26037;DHT22;13810;48.376;10.944;2023-01-09T03:39:56;4.50;99.90
26037;DHT22;13810;48.376;10.944;2023-01-09T03:40:27;4.50;99.90
26037;DHT22;13810;48.376;10.944;2023-01-09T03:40:58;4.50;99.90
26037;DHT22;13810;48.376;10.944;2023-01-09T03:41:28;4.50;99.90
26037;DHT22;13810;48.376;10.944;2023-01-09T03:41:59;4.50;99.90
26037;DHT22;13810;48.376;10.944;2023-01-09T03:42:29;4.50;99.90
26037;DHT22;13810;48.376;10.944;2023-01-09T03:43:00;4.50;99.90
26037;DHT22;13810;48.376;10.944;2023-01-09T03:43:31;4.50;99.90
26037;DHT22;13810;48.376;10.944;2023-01-09T03:44:02;4.50;99.90
26037;DHT22;13810;48.376;10.944;2023-01-09T03:44:32;4.50;99.90
26037;DHT22;13810;48.376;10.944;2023-01-09T03:45:03;4.50;99.90
26037;DHT22;13810;48.376;10.944;2023-01-09T03:45:34;4.60;99.90
26037;DHT22;13810;48.376;10.944;2023-01-09T03:46:05;4.60;99.90
26037;DHT22;13810;48.376;10.944;2023-01-09T03:46:35;4.50;99.90
26037;DHT22;13810;48.376;10.944;2023-01-09T03:47:06;4.60;99.90
26037;DHT22;13810;48.376;10.944;2023-01-09T03:47:37;4.50;99.90
26037;DHT22;13810;48.376;10.944;2023-01-09T03:48:07;4.50;99.90
26037;DHT22;13810;48.376;10.944;2023-01-09T03:48:38;4.50;99.90
26037;DHT22;13810;48.376;10.944;2023-01-09T03:49:08;4.50;99.90
26037;DHT22;13810;48.376;10.944;2023-01-09T03:49:39;4.50;99.90
26037;DHT22;13810;48.376;10.944;2023-01-09T03:50:10;4.50;99.90
26037;DHT22;13810;48.376;10.944;2023-01-09T03:50:40;4.50;99.90
26037;DHT22;13810;48.376;10.944;2023-01-09T03:51:16;4.50;99.90
26037;DHT22;13810;48.376;10.944;2023-01-09T03:51:47;4.50;99.90
26037;DHT22;13810;48.376;10.944;2023-01-09T03:52:17;4.50;99.90
26037;DHT22;13810;48.376;10.944;2023-01-09T03:52:48;4.50;99.90
26037;DHT22;13810;48.376;10.944;2023-01-09T03:53:20;4.50;99.90
26037;DHT22;13810;48.376;10.944;2023-01-09T03:53:52;4.50;99.90
26037;DHT22;13810;48.376;10.944;2023-01-09T03:54:22;4.50;99.90
26037;DHT22;13810;48.376;10.944;2023-01-09T03:54:53;4.50;99.90
26037;DHT22;13810;48.376;10.944;2023-01-09T03:55:24;4.50;99.90
26037;DHT22;13810;48.376;10.944;2023-01-09T03:55:56;4.60;99.90
26037;DHT22;13810;48.376;10.944;2023-01-09T03:56:27;4.50;99.90
26037;DHT22;13810;48.376;10.944;2023-01-09T03:56:57;4.60;99.90
26037;DHT22;13810;48.376;10.944;2023-01-09T03:57:28;4.60;99.90
26037;DHT22;13810;48.376;10.944;2023-01-09T03:57:59;4.60;99.90